Time;durP1;ratioP1;P1;durP2;ratioP2;P2;SDS_P1;SDS_P2;PMS_P1;PMS_P2;Temp;Humidity;BMP_temperature;BMP_pressure;BME280_temperature;BME280_humidity;BME280_pressure;Samples;Min_cycle;Max_cycle;Signal;HPM_P1;HPM_P2
2021/10/14 00:00:45;;;;;;;4.88;3.75;;;9.90;99.90;;;;;;4938198;29;20057;-80
2021/10/14 00:03:12;;;;;;;4.20;3.88;;;9.80;99.90;;;;;;4938018;29;20358;-84
2021/10/14 00:05:40;;;;;;;3.10;2.90;;;9.80;99.90;;;;;;4938704;29;20051;-82
2021/10/14 00:08:07;;;;;;;3.63;3.33;;;9.80;99.90;;;;;;4937759;29;20067;-84
2021/10/14 00:10:35;;;;;;;4.25;3.88;;;9.80;99.90;;;;;;4938455;29;20482;-83
2021/10/14 00:13:02;;;;;;;3.20;3.00;;;9.90;99.90;;;;;;4954824;29;20464;-82
2021/10/14 00:15:32;;;;;;;3.33;3.05;;;9.90;99.90;;;;;;4937847;29;20542;-83
2021/10/14 00:18:00;;;;;;;3.60;3.30;;;9.90;99.90;;;;;;4954718;29;20045;-82
2021/10/14 00:20:30;;;;;;;3.13;2.92;;;9.90;99.90;;;;;;4954530;29;20043;-84
2021/10/14 00:22:57;;;;;;;3.40;3.10;;;9.80;99.90;;;;;;4954687;29;20039;-83
2021/10/14 00:25:25;;;;;;;3.20;3.00;;;9.80;99.90;;;;;;4954683;29;20045;-84
2021/10/14 00:27:52;;;;;;;3.10;2.90;;;9.80;99.90;;;;;;4954623;29;20055;-81
2021/10/14 00:30:20;;;;;;;5.13;4.72;;;9.70;99.90;;;;;;4937760;29;20050;-84
2021/10/14 00:32:48;;;;;;;9.32;4.55;;;9.70;99.90;;;;;;4938317;29;20043;-82
2021/10/14 00:35:15;;;;;;;3.20;3.00;;;9.60;99.90;;;;;;4937292;29;20047;-84
2021/10/14 00:37:42;;;;;;;3.40;3.10;;;9.70;99.90;;;;;;4937732;29;20142;-83
2021/10/14 00:40:10;;;;;;;3.53;3.22;;;9.60;99.90;;;;;;4937358;29;20263;-83
2021/10/14 00:42:38;;;;;;;3.65;3.35;;;9.50;99.90;;;;;;4953423;29;20054;-82
2021/10/14 00:45:06;;;;;;;3.17;2.97;;;9.50;99.90;;;;;;4921390;29;20063;-85
2021/10/14 00:47:33;;;;;;;3.20;3.00;;;9.50;99.90;;;;;;4937804;29;20074;-82
2021/10/14 00:50:01;;;;;;;3.40;3.10;;;9.50;99.90;;;;;;4919528;29;20046;-80
2021/10/14 00:52:28;;;;;;;3.40;3.10;;;9.40;99.90;;;;;;4935351;29;20043;-80
2021/10/14 00:54:56;;;;;;;3.40;3.10;;;9.50;99.90;;;;;;4918254;29;20040;-79
2021/10/14 00:57:24;;;;;;;3.58;3.28;;;9.40;99.90;;;;;;4918258;29;20143;-79
2021/10/14 00:59:52;;;;;;;3.40;3.10;;;9.40;99.90;;;;;;4902506;29;20120;-81
2021/10/14 01:02:20;;;;;;;3.20;3.00;;;9.50;99.90;;;;;;4935538;29;20082;-80
2021/10/14 01:04:48;;;;;;;3.78;3.47;;;9.50;99.90;;;;;;4918177;29;20443;-81
2021/10/14 01:07:15;;;;;;;3.17;2.97;;;9.50;99.90;;;;;;4935439;29;20080;-80
2021/10/14 01:09:42;;;;;;;3.20;3.00;;;9.50;99.90;;;;;;4935109;29;20047;-81
2021/10/14 01:12:10;;;;;;;3.45;3.15;;;9.40;99.90;;;;;;4918004;29;20165;-82
2021/10/14 01:14:37;;;;;;;3.45;3.15;;;9.40;99.90;;;;;;4917991;29;20413;-82
2021/10/14 01:17:05;;;;;;;3.58;3.28;;;9.40;99.90;;;;;;4935080;29;20046;-81
2021/10/14 01:19:32;;;;;;;3.35;3.08;;;9.30;99.90;;;;;;4917361;29;20047;-80
2021/10/14 01:21:59;;;;;;;4.20;3.90;;;9.40;99.90;;;;;;4918184;29;20054;-81
2021/10/14 01:24:27;;;;;;;3.50;3.20;;;9.30;99.90;;;;;;4934585;29;20411;-81
2021/10/14 01:26:54;;;;;;;3.78;3.47;;;9.30;99.90;;;;;;4902324;29;20055;-82
2021/10/14 01:29:21;;;;;;;3.20;3.00;;;9.40;99.90;;;;;;4901855;29;20048;-84
2021/10/14 01:31:48;;;;;;;3.20;3.00;;;9.30;99.90;;;;;;4918009;29;20043;-82
2021/10/14 01:34:16;;;;;;;3.20;3.00;;;9.30;99.90;;;;;;4917591;29;20506;-83
2021/10/14 01:36:43;;;;;;;3.40;3.10;;;9.30;99.90;;;;;;4918184;29;20055;-82
2021/10/14 01:39:11;;;;;;;3.50;3.20;;;9.30;99.90;;;;;;4917567;29;20058;-83
2021/10/14 01:41:44;;;;;;;3.40;3.10;;;9.30;99.90;;;;;;4902207;29;20478;-82
2021/10/14 01:44:13;;;;;;;3.10;2.90;;;9.30;99.90;;;;;;4901663;29;20055;-82
2021/10/14 01:46:41;;;;;;;3.33;3.03;;;9.30;99.90;;;;;;4917606;29;20383;-83
2021/10/14 01:49:08;;;;;;;3.40;3.10;;;9.20;99.90;;;;;;4925766;29;20159;-84
2021/10/14 01:51:35;;;;;;;3.47;3.17;;;9.30;99.90;;;;;;4953181;29;20031;-84
2021/10/14 01:54:03;;;;;;;3.20;3.00;;;9.20;99.90;;;;;;4953557;29;20043;-83
2021/10/14 01:56:30;;;;;;;3.40;3.10;;;9.20;99.90;;;;;;4935316;29;20055;-82
2021/10/14 01:58:57;;;;;;;3.60;3.30;;;9.30;99.90;;;;;;4936605;29;20050;-81
2021/10/14 02:01:25;;;;;;;3.45;3.15;;;9.30;99.90;;;;;;4936615;29;20134;-81
2021/10/14 02:03:52;;;;;;;3.35;3.10;;;9.30;99.90;;;;;;4953356;29;20043;-80
2021/10/14 02:06:20;;;;;;;3.50;3.20;;;9.30;99.90;;;;;;4953941;29;20119;-83
2021/10/14 02:08:47;;;;;;;3.60;3.30;;;9.30;99.90;;;;;;4936395;29;20070;-82
2021/10/14 02:11:14;;;;;;;3.20;3.00;;;9.30;99.90;;;;;;4936095;29;20054;-82
2021/10/14 02:13:42;;;;;;;3.40;3.10;;;9.30;99.90;;;;;;4953607;29;20047;-81
2021/10/14 02:16:09;;;;;;;3.40;3.10;;;9.30;99.90;;;;;;4953534;29;20395;-82
2021/10/14 02:18:37;;;;;;;3.40;3.10;;;9.20;99.90;;;;;;4936115;29;20055;-81
2021/10/14 02:21:04;;;;;;;3.40;3.10;;;9.20;99.90;;;;;;4953207;29;20043;-83
2021/10/14 02:23:32;;;;;;;3.58;3.28;;;9.20;99.90;;;;;;4936494;29;20439;-81
2021/10/14 02:25:59;;;;;;;3.50;3.20;;;9.20;99.90;;;;;;4936025;29;20555;-82
2021/10/14 02:28:27;;;;;;;3.40;3.10;;;9.10;99.90;;;;;;4935744;29;20407;-82
2021/10/14 02:30:54;;;;;;;3.50;3.20;;;9.20;99.90;;;;;;4936557;29;20047;-80
2021/10/14 02:33:21;;;;;;;4.05;3.75;;;9.20;99.90;;;;;;4952860;29;20047;-81
2021/10/14 02:35:50;;;;;;;3.53;3.22;;;9.20;99.90;;;;;;4936055;29;20062;-81
2021/10/14 02:38:17;;;;;;;3.17;2.97;;;9.10;99.90;;;;;;4936089;29;20051;-81
2021/10/14 02:40:45;;;;;;;3.50;3.20;;;9.10;99.90;;;;;;4920487;29;20054;-81
2021/10/14 02:43:12;;;;;;;3.00;2.80;;;9.10;99.90;;;;;;4935917;29;20043;-83
2021/10/14 02:45:40;;;;;;;3.33;3.05;;;9.10;99.90;;;;;;4936387;29;20476;-82
2021/10/14 02:48:07;;;;;;;3.40;3.10;;;9.10;99.90;;;;;;4920218;29;20071;-81
2021/10/14 02:50:35;;;;;;;3.40;3.10;;;9.00;99.90;;;;;;4914252;29;20424;-80
2021/10/14 02:53:02;;;;;;;4.05;3.75;;;9.00;99.90;;;;;;4897748;29;20051;-83
2021/10/14 02:55:29;;;;;;;4.00;3.70;;;9.00;99.90;;;;;;4915034;29;20159;-79
2021/10/14 02:57:57;;;;;;;3.60;3.30;;;8.90;99.90;;;;;;4898466;29;20119;-84
2021/10/14 03:00:24;;;;;;;5.68;4.03;;;8.90;99.90;;;;;;4882568;29;20052;-84
2021/10/14 03:02:52;;;;;;;3.60;3.30;;;8.80;99.90;;;;;;4898341;29;20048;-80
2021/10/14 03:05:19;;;;;;;3.55;3.25;;;8.80;99.90;;;;;;4915120;29;20048;-81
2021/10/14 03:07:46;;;;;;;3.40;3.10;;;8.80;99.90;;;;;;4915620;29;20449;-81
2021/10/14 03:10:14;;;;;;;3.50;3.20;;;8.80;99.90;;;;;;4918062;29;20741;-82
2021/10/14 03:13:02;;;;;;;3.60;3.30;;;8.80;99.90;;;;;;4897015;29;20044;-82
2021/10/14 03:15:33;;;;;;;3.50;3.20;;;8.70;99.90;;;;;;4885995;29;20079;-81
2021/10/14 03:18:02;;;;;;;3.50;3.20;;;8.80;99.90;;;;;;4900537;29;20048;-82
2021/10/14 03:20:29;;;;;;;3.50;3.20;;;8.80;99.90;;;;;;4900991;29;20056;-82
2021/10/14 03:22:56;;;;;;;3.60;3.30;;;8.70;99.90;;;;;;4915992;29;20044;-82
2021/10/14 03:25:24;;;;;;;3.40;3.10;;;8.70;99.90;;;;;;4900828;29;20143;-81
2021/10/14 03:27:51;;;;;;;3.60;3.30;;;8.60;99.90;;;;;;4901080;29;20064;-80
2021/10/14 03:30:19;;;;;;;4.65;4.32;;;8.50;99.90;;;;;;4917861;29;20390;-82
2021/10/14 03:32:46;;;;;;;3.53;3.22;;;8.60;99.90;;;;;;4917940;29;20042;-83
2021/10/14 03:35:14;;;;;;;3.70;3.40;;;8.40;99.90;;;;;;4917914;29;20048;-82
2021/10/14 03:37:41;;;;;;;3.65;3.35;;;8.40;99.90;;;;;;4885142;29;20051;-82
2021/10/14 03:40:09;;;;;;;3.60;3.30;;;8.50;99.90;;;;;;4885586;29;20404;-81
2021/10/14 03:42:36;;;;;;;3.60;3.30;;;8.50;99.90;;;;;;4916261;29;20048;-80
2021/10/14 03:45:04;;;;;;;3.50;3.20;;;8.50;99.90;;;;;;4885666;29;20127;-81
2021/10/14 03:47:32;;;;;;;3.50;3.20;;;8.40;99.90;;;;;;4917636;29;20048;-80
2021/10/14 03:49:59;;;;;;;3.63;3.33;;;8.40;99.90;;;;;;4924692;29;20082;-80
2021/10/14 03:52:26;;;;;;;3.53;3.22;;;8.20;99.90;;;;;;4938693;29;20457;-82
2021/10/14 03:54:54;;;;;;;3.60;3.30;;;8.20;99.90;;;;;;4938637;29;20050;-82
2021/10/14 03:57:21;;;;;;;3.40;3.10;;;8.30;99.90;;;;;;4937884;29;20499;-79
2021/10/14 03:59:48;;;;;;;3.50;3.20;;;8.30;99.90;;;;;;4955773;29;20047;-82
2021/10/14 04:02:17;;;;;;;3.70;3.40;;;8.30;99.90;;;;;;4938592;29;20047;-80
2021/10/14 04:04:45;;;;;;;3.60;3.30;;;8.30;99.90;;;;;;4955051;29;20043;-80
2021/10/14 04:07:12;;;;;;;3.70;3.40;;;8.20;99.90;;;;;;4938061;29;20240;-80
2021/10/14 04:09:40;;;;;;;3.60;3.30;;;8.20;99.90;;;;;;4938048;29;20053;-81
2021/10/14 04:12:10;;;;;;;4.03;3.72;;;8.20;99.90;;;;;;4922565;29;20119;-80
2021/10/14 04:14:38;;;;;;;3.60;3.30;;;8.10;99.90;;;;;;4953855;29;20058;-82
2021/10/14 04:17:06;;;;;;;3.70;3.40;;;8.10;99.90;;;;;;4954614;29;20040;-82
2021/10/14 04:19:33;;;;;;;3.95;3.65;;;8.00;99.90;;;;;;4920810;29;20142;-81
2021/10/14 04:22:01;;;;;;;4.88;4.47;;;8.00;99.90;;;;;;4937862;29;20377;-81
2021/10/14 04:24:29;;;;;;;4.00;3.70;;;8.00;99.90;;;;;;4937328;29;20460;-82
2021/10/14 04:26:56;;;;;;;3.80;3.50;;;8.00;99.90;;;;;;4954513;29;20483;-81
2021/10/14 04:29:24;;;;;;;3.60;3.30;;;7.90;99.90;;;;;;4937319;29;20426;-81
2021/10/14 04:31:52;;;;;;;3.60;3.30;;;8.00;99.90;;;;;;4954730;29;20494;-81
2021/10/14 04:34:20;;;;;;;8.30;5.88;;;8.10;99.90;;;;;;4937191;29;20491;-81
2021/10/14 04:36:48;;;;;;;3.58;3.28;;;8.00;99.90;;;;;;4953169;29;20045;-80
2021/10/14 04:39:15;;;;;;;3.70;3.40;;;8.00;99.90;;;;;;4937282;29;20384;-82
2021/10/14 04:41:44;;;;;;;3.80;3.50;;;8.00;99.90;;;;;;4937615;29;20039;-82
2021/10/14 04:44:11;;;;;;;4.18;3.88;;;8.40;99.90;;;;;;4937942;29;20561;-81
2021/10/14 04:46:39;;;;;;;3.63;3.33;;;8.60;99.90;;;;;;4937421;29;20067;-82
2021/10/14 04:49:06;;;;;;;3.88;3.58;;;8.20;99.90;;;;;;4950677;29;20046;-83
2021/10/14 04:51:34;;;;;;;3.85;3.55;;;8.20;99.90;;;;;;4918601;29;20476;-81
2021/10/14 04:54:01;;;;;;;4.25;3.85;;;8.30;99.90;;;;;;4918611;29;20040;-89
2021/10/14 04:56:28;;;;;;;3.65;3.35;;;8.20;99.90;;;;;;4903611;29;20122;-83
2021/10/14 04:58:55;;;;;;;3.70;3.40;;;8.20;99.90;;;;;;4918803;29;20106;-80
2021/10/14 05:01:23;;;;;;;3.70;3.40;;;8.10;99.90;;;;;;4918520;29;20099;-81
2021/10/14 05:03:50;;;;;;;3.80;3.50;;;8.00;99.90;;;;;;4902247;29;20143;-82
2021/10/14 05:06:18;;;;;;;3.75;3.45;;;7.90;99.90;;;;;;4919291;29;20131;-80
2021/10/14 05:09:38;;;;;;;4.00;3.70;;;8.10;99.90;;;;;;4916535;29;20131;-83
2021/10/14 05:12:08;;;;;;;3.55;3.25;;;7.90;99.90;;;;;;4918570;29;20165;-85
2021/10/14 05:14:36;;;;;;;3.70;3.40;;;7.90;99.90;;;;;;4919343;29;20051;-87
2021/10/14 05:17:10;;;;;;;3.53;3.22;;;8.00;99.90;;;;;;4918966;29;20071;-86
2021/10/14 05:19:37;;;;;;;3.85;3.55;;;8.10;99.90;;;;;;4902177;29;20051;-84
2021/10/14 05:22:04;;;;;;;5.72;5.22;;;8.20;99.90;;;;;;4902674;29;20054;-86
2021/10/14 05:24:32;;;;;;;3.65;3.35;;;8.60;99.90;;;;;;4918604;29;20197;-87
2021/10/14 05:26:59;;;;;;;3.50;3.20;;;8.00;99.90;;;;;;4918118;29;20209;-87
2021/10/14 05:29:29;;;;;;;3.70;3.40;;;7.90;99.90;;;;;;4918299;29;20044;-85
2021/10/14 05:31:57;;;;;;;3.90;3.60;;;8.10;99.90;;;;;;4902184;29;20229;-83
2021/10/14 05:34:24;;;;;;;3.70;3.40;;;7.90;99.90;;;;;;4918345;29;20227;-86
2021/10/14 05:36:51;;;;;;;3.70;3.40;;;7.80;99.90;;;;;;4918114;29;20131;-87
2021/10/14 05:39:23;;;;;;;3.55;3.25;;;7.90;99.90;;;;;;4918372;29;20492;-85
2021/10/14 05:41:50;;;;;;;3.80;3.50;;;7.90;99.90;;;;;;4918662;29;20111;-86
2021/10/14 05:44:17;;;;;;;3.70;3.40;;;8.00;99.90;;;;;;4918229;29;20050;-83
2021/10/14 05:46:45;;;;;;;3.55;3.25;;;7.80;99.90;;;;;;4902507;29;20040;-83
2021/10/14 05:58:23;;;;;;;3.70;3.40;;;7.80;99.90;;;;;;5679688;23;20040;-84
2021/10/14 06:00:50;;;;;;;4.30;3.97;;;7.90;99.90;;;;;;4898708;29;20555;-85
2021/10/14 06:03:18;;;;;;;3.80;3.50;;;7.90;99.90;;;;;;4895648;29;20040;-85
2021/10/14 06:05:45;;;;;;;3.53;3.22;;;8.00;99.90;;;;;;4898096;29;20052;-85
2021/10/14 06:08:14;;;;;;;3.60;3.30;;;7.90;99.90;;;;;;4896015;29;20052;-85
2021/10/14 06:10:42;;;;;;;3.60;3.30;;;7.70;99.90;;;;;;4897677;29;20139;-83
2021/10/14 06:13:09;;;;;;;3.65;3.35;;;7.70;99.90;;;;;;4916071;29;20503;-84
2021/10/14 06:15:38;;;;;;;3.60;3.30;;;7.70;99.90;;;;;;4897397;29;20060;-87
2021/10/14 06:18:05;;;;;;;3.70;3.40;;;7.70;99.90;;;;;;4880972;29;20079;-88
2021/10/14 06:20:32;;;;;;;3.60;3.30;;;7.70;99.90;;;;;;4896331;29;20501;-87
2021/10/14 06:23:02;;;;;;;3.65;3.35;;;7.70;99.90;;;;;;4896416;29;20055;-84
2021/10/14 06:25:29;;;;;;;3.60;3.30;;;7.70;99.90;;;;;;4896380;29;20076;-86
2021/10/14 06:27:56;;;;;;;4.15;3.85;;;7.80;99.90;;;;;;4883557;29;20075;-87
2021/10/14 06:30:24;;;;;;;3.90;3.60;;;7.80;99.90;;;;;;4899033;29;20059;-87
2021/10/14 06:32:52;;;;;;;3.70;3.40;;;7.80;99.90;;;;;;4899050;29;20059;-86
2021/10/14 06:35:19;;;;;;;3.60;3.30;;;7.90;99.90;;;;;;4896056;29;20056;-84
2021/10/14 06:37:47;;;;;;;3.60;3.30;;;7.90;99.90;;;;;;4882737;29;20056;-85
2021/10/14 06:40:14;;;;;;;3.60;3.30;;;8.00;99.90;;;;;;4880480;29;20084;-84
2021/10/14 06:42:46;;;;;;;3.70;3.40;;;8.00;99.90;;;;;;4899794;29;20044;-86
2021/10/14 06:45:13;;;;;;;3.60;3.30;;;8.00;99.90;;;;;;4899862;29;20059;-86
2021/10/14 06:47:41;;;;;;;3.70;3.40;;;8.10;99.90;;;;;;4901064;29;20052;-88
2021/10/14 06:50:08;;;;;;;3.60;3.30;;;8.10;99.90;;;;;;4907449;29;20100;-86
2021/10/14 06:52:36;;;;;;;3.60;3.30;;;8.10;99.90;;;;;;4926537;29;20511;-88
2021/10/14 06:55:06;;;;;;;4.40;4.00;;;7.80;99.90;;;;;;4905953;29;20051;-87
2021/10/14 06:57:38;;;;;;;3.50;3.20;;;7.90;99.90;;;;;;4937190;29;20632;-86
2021/10/14 07:00:07;;;;;;;3.60;3.30;;;8.00;99.90;;;;;;4917749;29;20097;-83
2021/10/14 07:02:36;;;;;;;3.60;3.30;;;7.80;99.90;;;;;;4908641;29;20123;-82
2021/10/14 07:05:04;;;;;;;3.90;3.60;;;8.00;99.90;;;;;;4898109;29;20041;-83
2021/10/14 07:07:32;;;;;;;3.50;3.20;;;7.90;99.90;;;;;;4899592;29;20044;-85
2021/10/14 07:09:59;;;;;;;3.33;3.03;;;8.00;99.90;;;;;;4898042;29;20045;-86
2021/10/14 07:12:38;;;;;;;3.50;3.20;;;8.20;99.90;;;;;;4891838;29;20068;-83
2021/10/14 07:15:06;;;;;;;4.27;3.87;;;8.40;99.90;;;;;;4896950;29;20067;-84
2021/10/14 07:17:35;;;;;;;3.50;3.20;;;8.40;99.90;;;;;;4897001;29;20290;-84
2021/10/14 07:20:05;;;;;;;3.50;3.20;;;8.40;99.90;;;;;;4899018;29;20075;-83
2021/10/14 07:22:35;;;;;;;3.70;3.40;;;8.50;99.90;;;;;;4892540;29;20041;-84
2021/10/14 07:25:03;;;;;;;3.60;3.30;;;8.50;99.90;;;;;;4894742;29;20532;-85
2021/10/14 07:27:34;;;;;;;3.50;3.20;;;8.50;99.90;;;;;;4870023;29;20092;-83
2021/10/14 07:30:08;;;;;;;3.40;3.10;;;8.50;99.90;;;;;;4898194;29;20043;-83
2021/10/14 07:32:37;;;;;;;3.20;3.00;;;8.70;99.90;;;;;;4881532;29;20523;-85
2021/10/14 07:35:06;;;;;;;3.40;3.10;;;8.70;99.90;;;;;;4896389;29;20047;-83
2021/10/14 07:37:33;;;;;;;3.53;3.22;;;8.80;99.90;;;;;;4898738;29;20588;-86
2021/10/14 07:40:01;;;;;;;3.40;3.10;;;9.10;99.90;;;;;;4913412;29;20473;-83
2021/10/14 07:42:36;;;;;;;3.35;3.05;;;9.00;99.90;;;;;;4899195;29;20048;-82
2021/10/14 07:45:05;;;;;;;3.50;3.20;;;8.80;99.90;;;;;;4899305;29;20497;-84
2021/10/14 07:47:32;;;;;;;3.47;3.17;;;8.80;99.90;;;;;;4899552;29;20041;-86
2021/10/14 07:50:00;;;;;;;3.50;3.20;;;8.80;99.90;;;;;;4900023;29;20045;-88
2021/10/14 07:52:27;;;;;;;3.35;3.08;;;8.80;99.90;;;;;;4899561;29;20377;-81
2021/10/14 07:54:54;;;;;;;3.50;3.20;;;8.80;99.90;;;;;;4913276;29;20408;-84
2021/10/14 07:57:22;;;;;;;3.40;3.10;;;8.70;99.90;;;;;;4897968;29;20471;-84
2021/10/14 07:59:50;;;;;;;3.67;3.38;;;8.80;99.90;;;;;;4915504;29;20063;-83
2021/10/14 08:02:18;;;;;;;3.40;3.10;;;8.70;99.90;;;;;;4918035;29;20536;-82
2021/10/14 08:04:48;;;;;;;3.20;3.00;;;8.80;99.90;;;;;;4917763;29;20563;-81
2021/10/14 08:07:15;;;;;;;3.30;3.10;;;8.70;99.90;;;;;;4886237;29;20516;-87
2021/10/14 08:09:42;;;;;;;3.20;3.00;;;8.70;99.90;;;;;;4918092;29;20054;-87
2021/10/14 08:12:11;;;;;;;4.80;4.40;;;8.60;99.90;;;;;;4901591;29;20464;-85
2021/10/14 08:14:38;;;;;;;3.40;3.10;;;8.60;99.90;;;;;;4901322;29;20135;-84
2021/10/14 08:17:07;;;;;;;3.20;3.00;;;8.50;99.90;;;;;;4917444;29;20048;-87
2021/10/14 08:19:34;;;;;;;3.22;3.00;;;8.50;99.90;;;;;;4900791;29;20043;-86
2021/10/14 08:22:02;;;;;;;3.20;3.00;;;8.50;99.90;;;;;;4901937;29;20373;-86
2021/10/14 08:24:29;;;;;;;3.20;3.00;;;8.60;99.90;;;;;;4917535;29;20062;-80
2021/10/14 08:26:57;;;;;;;3.30;3.10;;;8.60;99.90;;;;;;4900810;29;20099;-86
2021/10/14 08:29:29;;;;;;;3.50;3.20;;;8.60;99.90;;;;;;4917042;29;20051;-82
2021/10/14 08:31:57;;;;;;;3.40;3.10;;;8.70;99.90;;;;;;4917083;29;20082;-81
2021/10/14 08:34:24;;;;;;;3.17;2.97;;;8.70;99.90;;;;;;4916452;29;20087;-82
2021/10/14 08:36:52;;;;;;;3.75;3.45;;;8.70;99.90;;;;;;4899014;29;20511;-82
2021/10/14 08:39:19;;;;;;;3.72;3.42;;;8.60;99.90;;;;;;4915922;29;20380;-80
2021/10/14 08:41:47;;;;;;;3.40;3.10;;;8.60;99.90;;;;;;4916944;29;20138;-82
2021/10/14 08:44:25;;;;;;;3.20;3.00;;;8.70;99.90;;;;;;4900336;29;20056;-85
2021/10/14 08:47:00;;;;;;;3.30;3.00;;;8.70;99.90;;;;;;4899781;29;20047;-86
2021/10/14 08:49:30;;;;;;;4.82;4.45;;;8.60;99.90;;;;;;4900253;23;20053;-82
2021/10/14 08:51:57;;;;;;;3.40;3.10;;;8.50;99.90;;;;;;4878226;29;20124;-86
2021/10/14 08:54:25;;;;;;;3.70;3.40;;;8.40;99.90;;;;;;4879206;29;20804;-80
2021/10/14 08:56:52;;;;;;;3.50;3.20;;;8.40;99.90;;;;;;4877570;29;20045;-82
2021/10/14 08:59:20;;;;;;;3.40;3.10;;;8.50;99.90;;;;;;4862434;29;20116;-81
2021/10/14 09:02:15;;;;;;;3.47;3.17;;;8.50;99.90;;;;;;4874823;29;20056;-83
2021/10/14 09:04:48;;;;;;;3.40;3.10;;;8.70;99.90;;;;;;4887817;29;20060;-82
2021/10/14 09:07:18;;;;;;;3.70;3.40;;;8.70;99.90;;;;;;4881982;29;20420;-81
2021/10/14 09:09:49;;;;;;;3.83;3.53;;;8.70;99.90;;;;;;4881168;29;20037;-87
2021/10/14 09:12:22;;;;;;;3.65;3.35;;;8.60;99.90;;;;;;4896790;29;20052;-85
2021/10/14 09:15:05;;;;;;;3.10;2.90;;;8.70;99.90;;;;;;4896964;29;20032;-86
2021/10/14 09:17:39;;;;;;;3.47;3.17;;;8.80;99.90;;;;;;4880742;29;20288;-82
2021/10/14 09:20:29;;;;;;;3.42;3.13;;;8.80;99.90;;;;;;4865594;29;20131;-83
2021/10/14 09:23:04;;;;;;;3.15;2.95;;;8.70;99.90;;;;;;4896070;29;20060;-86
2021/10/14 09:25:34;;;;;;;3.50;3.20;;;8.70;99.90;;;;;;4895706;29;20480;-87
2021/10/14 09:28:05;;;;;;;3.10;2.90;;;8.70;99.90;;;;;;4866599;29;20067;-85
2021/10/14 09:30:42;;;;;;;3.28;3.00;;;8.70;99.90;;;;;;4897659;29;20131;-85
2021/10/14 09:33:29;;;;;;;8.35;4.13;;;8.70;99.90;;;;;;4876610;29;20472;-84
2021/10/14 09:36:10;;;;;;;3.10;2.90;;;8.50;99.90;;;;;;4896934;29;20248;-85
2021/10/14 09:38:37;;;;;;;3.10;2.90;;;8.20;99.90;;;;;;4864134;29;20100;-83
2021/10/14 09:41:10;;;;;;;3.20;3.00;;;8.10;99.90;;;;;;4895664;29;20104;-84
2021/10/14 09:43:38;;;;;;;3.20;3.00;;;8.10;99.90;;;;;;4878844;29;20036;-80
2021/10/14 09:46:06;;;;;;;4.18;3.78;;;8.20;99.90;;;;;;4896006;29;20129;-85
2021/10/14 09:48:36;;;;;;;3.40;3.10;;;8.10;99.90;;;;;;4861216;29;20085;-86
2021/10/14 09:51:04;;;;;;;3.40;3.10;;;8.10;99.90;;;;;;4893951;29;20499;-80
2021/10/14 09:53:32;;;;;;;3.40;3.10;;;8.10;99.90;;;;;;4879584;29;20409;-82
2021/10/14 09:56:02;;;;;;;3.20;3.00;;;8.00;99.90;;;;;;4879042;29;20484;-83
2021/10/14 09:58:32;;;;;;;3.90;3.60;;;8.00;99.90;;;;;;4881178;29;20048;-79
2021/10/14 10:01:01;;;;;;;3.50;3.20;;;8.10;99.90;;;;;;4891889;29;20040;-81
2021/10/14 10:03:31;;;;;;;3.40;3.10;;;8.10;99.90;;;;;;4880495;29;20548;-85
2021/10/14 10:06:01;;;;;;;3.75;3.45;;;8.40;99.90;;;;;;4896573;29;20214;-85
2021/10/14 10:08:38;;;;;;;3.53;3.23;;;8.30;99.90;;;;;;4855801;29;20377;-85
2021/10/14 10:11:12;;;;;;;3.40;3.10;;;8.10;99.90;;;;;;4873804;29;20037;-84
2021/10/14 10:13:46;;;;;;;3.65;3.35;;;8.10;99.90;;;;;;4879044;29;20033;-85
2021/10/14 10:16:19;;;;;;;3.60;3.30;;;8.50;99.90;;;;;;4863845;29;20488;-83
2021/10/14 10:18:51;;;;;;;3.50;3.20;;;8.40;99.90;;;;;;4899577;29;20059;-88
2021/10/14 10:21:32;;;;;;;3.70;3.40;;;8.30;99.90;;;;;;4868840;29;20341;-87
2021/10/14 10:24:07;;;;;;;3.47;3.17;;;8.50;99.90;;;;;;4900146;29;20099;-80
2021/10/14 10:26:47;;;;;;;3.83;3.50;;;8.20;99.90;;;;;;4884388;29;20401;-80
2021/10/14 10:29:22;;;;;;;3.63;3.28;;;8.10;99.90;;;;;;4875235;29;20052;-85
2021/10/14 10:31:49;;;;;;;3.20;3.00;;;8.00;99.90;;;;;;4883684;29;20104;-88
2021/10/14 10:37:56;;;;;;;3.40;3.10;;;8.20;99.90;;;;;;4878003;29;20056;-86
2021/10/14 10:40:51;;;;;;;3.95;3.65;;;8.20;99.90;;;;;;4882582;29;20104;-89
2021/10/14 10:43:29;;;;;;;3.50;3.20;;;8.20;99.90;;;;;;4882438;29;20041;-88
2021/10/14 10:46:06;;;;;;;3.40;3.10;;;8.20;99.90;;;;;;4866134;29;20116;-83
2021/10/14 10:48:52;;;;;;;3.50;3.20;;;8.10;99.90;;;;;;4852263;29;20116;-89
2021/10/14 10:51:28;;;;;;;3.40;3.10;;;8.40;99.90;;;;;;4849442;29;20052;-81
2021/10/14 10:53:56;;;;;;;5.45;3.45;;;8.40;99.90;;;;;;4866438;29;20072;-80
2021/10/14 10:56:34;;;;;;;3.35;3.10;;;8.40;99.90;;;;;;4880342;29;20043;-85
2021/10/14 10:59:03;;;;;;;3.40;3.10;;;8.60;99.90;;;;;;4864564;29;20041;-83
2021/10/14 11:01:37;;;;;;;3.40;3.10;;;8.60;99.90;;;;;;4879942;29;20056;-87
2021/10/14 11:04:07;;;;;;;3.40;3.10;;;8.50;99.90;;;;;;4864395;29;20059;-86
2021/10/14 11:06:35;;;;;;;3.33;3.10;;;8.50;99.90;;;;;;4880858;29;20476;-86
2021/10/14 11:09:11;;;;;;;3.40;3.10;;;8.60;99.90;;;;;;4881268;29;20037;-83
2021/10/14 11:11:38;;;;;;;3.40;3.10;;;8.70;99.90;;;;;;4880986;29;20048;-83
2021/10/14 11:14:06;;;;;;;3.40;3.10;;;8.80;99.90;;;;;;4864053;29;20111;-86
2021/10/14 11:16:34;;;;;;;3.20;3.00;;;8.60;99.90;;;;;;4879895;29;20072;-81
2021/10/14 11:19:01;;;;;;;3.40;3.10;;;8.70;99.90;;;;;;4879428;29;20045;-86
2021/10/14 11:21:39;;;;;;;3.50;3.20;;;8.60;99.90;;;;;;4864716;29;20049;-86
2021/10/14 11:24:06;;;;;;;3.45;3.15;;;8.40;99.90;;;;;;4863631;29;20044;-84
2021/10/14 11:26:43;;;;;;;3.20;3.00;;;8.30;99.90;;;;;;4880497;29;20049;-86
2021/10/14 11:29:23;;;;;;;4.40;4.10;;;8.50;99.90;;;;;;4862727;29;20124;-83
2021/10/14 11:32:05;;;;;;;3.25;3.00;;;8.70;99.90;;;;;;4863892;29;20048;-83
2021/10/14 11:34:32;;;;;;;4.70;4.30;;;8.60;99.90;;;;;;4864162;29;20033;-83
2021/10/14 11:37:04;;;;;;;3.20;3.00;;;8.40;99.90;;;;;;4879645;29;20056;-86
2021/10/14 11:39:47;;;;;;;3.72;3.35;;;8.30;99.90;;;;;;4863606;29;20033;-85
2021/10/14 11:42:21;;;;;;;3.22;3.00;;;8.40;99.90;;;;;;4879363;29;20041;-80
2021/10/14 11:45:01;;;;;;;3.70;3.40;;;8.50;99.90;;;;;;4880350;29;20041;-87
2021/10/14 11:47:35;;;;;;;3.40;3.10;;;8.60;99.90;;;;;;4879187;29;20117;-83
2021/10/14 11:50:09;;;;;;;3.40;3.10;;;8.70;99.90;;;;;;4844237;29;20065;-82
2021/10/14 11:52:37;;;;;;;3.38;3.10;;;9.00;99.90;;;;;;4845514;29;20082;-86
2021/10/14 11:55:07;;;;;;;3.65;3.35;;;9.50;99.90;;;;;;4862255;29;20061;-82
2021/10/14 11:57:38;;;;;;;3.10;2.90;;;9.50;99.90;;;;;;4862018;29;20049;-87
2021/10/14 12:00:06;;;;;;;3.20;3.00;;;10.00;99.90;;;;;;4861610;29;20389;-81
2021/10/14 12:02:37;;;;;;;;;;;9.80;99.90;;;;;;4861766;29;20086;-87
2021/10/14 12:05:05;;;;;;;3.10;2.90;;;9.80;99.90;;;;;;4830594;29;19972;-85
2021/10/14 12:07:34;;;;;;;3.20;3.00;;;9.50;99.90;;;;;;4860569;29;20072;-87
2021/10/14 12:10:02;;;;;;;3.10;2.90;;;9.40;99.90;;;;;;4860066;29;20045;-85
2021/10/14 12:12:30;;;;;;;3.00;2.80;;;9.50;99.90;;;;;;4861219;29;20053;-82
2021/10/14 12:15:14;;;;;;;3.10;2.90;;;10.00;99.90;;;;;;4861986;29;20041;-84
2021/10/14 12:17:44;;;;;;;3.10;2.90;;;9.90;99.90;;;;;;4860588;29;20049;-81
2021/10/14 12:20:14;;;;;;;3.13;2.92;;;9.70;99.90;;;;;;4861333;29;20128;-84
2021/10/14 12:22:43;;;;;;;2.90;2.70;;;9.50;99.90;;;;;;4861097;29;20042;-82
2021/10/14 12:25:11;;;;;;;3.13;2.92;;;9.40;99.90;;;;;;4860631;29;20041;-89
2021/10/14 12:27:56;;;;;;;3.45;3.15;;;9.30;99.90;;;;;;4860460;29;20041;-82
2021/10/14 12:30:29;;;;;;;3.20;3.00;;;9.50;99.90;;;;;;4862153;29;20047;-88
2021/10/14 12:33:18;;;;;;;3.53;3.22;;;9.80;99.90;;;;;;4844569;29;20061;-84
2021/10/14 12:36:00;;;;;;;3.03;2.83;;;9.90;99.90;;;;;;4861331;29;20189;-89
2021/10/14 12:38:41;;;;;;;4.45;3.83;;;9.30;99.90;;;;;;4859936;29;20439;-82
2021/10/14 12:41:13;;;;;;;3.20;3.00;;;9.30;99.90;;;;;;4859235;29;20041;-81
2021/10/14 12:43:55;;;;;;;3.20;3.00;;;9.50;99.90;;;;;;4860799;29;20117;-80
2021/10/14 12:46:33;;;;;;;3.25;3.00;;;9.10;99.90;;;;;;4844688;29;20481;-83
2021/10/14 12:51:52;;;;;;;3.50;3.20;;;9.30;99.90;;;;;;4901021;29;20067;-81
2021/10/14 12:54:22;;;;;;;3.33;3.10;;;9.50;99.90;;;;;;4916589;29;20115;-83
2021/10/14 12:56:58;;;;;;;3.88;3.58;;;9.40;99.90;;;;;;4916796;29;20036;-87
2021/10/14 12:59:27;;;;;;;3.10;2.90;;;9.30;99.90;;;;;;4883571;29;20055;-86
2021/10/14 13:01:58;;;;;;;3.35;3.10;;;9.30;99.90;;;;;;4899210;29;20543;-80
2021/10/14 13:04:26;;;;;;;3.00;2.80;;;9.20;99.90;;;;;;4916445;29;20377;-88
2021/10/14 13:06:55;;;;;;;3.00;2.80;;;9.10;99.90;;;;;;4916801;29;20051;-81
2021/10/14 13:09:24;;;;;;;3.10;2.90;;;8.90;99.90;;;;;;4882998;29;20044;-82
2021/10/14 13:11:52;;;;;;;3.20;3.00;;;9.00;99.90;;;;;;4899386;29;20064;-87
2021/10/14 13:14:24;;;;;;;2.88;2.67;;;8.90;99.90;;;;;;4899989;29;20063;-80
2021/10/14 13:16:52;;;;;;;3.47;3.17;;;8.80;99.90;;;;;;4915332;29;20040;-81
2021/10/14 13:19:21;;;;;;;3.10;2.90;;;8.80;99.90;;;;;;4916552;29;20044;-80
2021/10/14 13:21:48;;;;;;;3.20;3.00;;;8.80;99.90;;;;;;4915564;29;20066;-82
2021/10/14 13:24:17;;;;;;;3.10;2.90;;;9.00;99.90;;;;;;4916891;29;20047;-82
2021/10/14 13:26:44;;;;;;;3.30;3.03;;;9.10;99.90;;;;;;4916813;29;20047;-83